sensor_id;sensor_type;location;lat;lon;timestamp;pressure;altitude;pressure_sealevel;temperature;humidity
15634;BME280;14654;48.898;8.308;2023-05-01T00:01:48;100205.06;;;10.12;100.00
15634;BME280;14654;48.898;8.308;2023-05-01T00:04:14;100200.72;;;10.13;100.00
15634;BME280;14654;48.898;8.308;2023-05-01T00:06:39;100198.13;;;10.16;100.00
15634;BME280;14654;48.898;8.308;2023-05-01T00:09:04;100197.25;;;10.15;100.00
15634;BME280;14654;48.898;8.308;2023-05-01T00:11:31;100198.97;;;10.16;100.00
15634;BME280;14654;48.898;8.308;2023-05-01T00:13:56;100192.94;;;10.17;100.00
15634;BME280;14654;48.898;8.308;2023-05-01T00:16:21;100192.06;;;10.15;100.00
15634;BME280;14654;48.898;8.308;2023-05-01T00:18:47;100192.06;;;10.15;100.00
15634;BME280;14654;48.898;8.308;2023-05-01T00:21:12;100183.44;;;10.16;100.00
15634;BME280;14654;48.898;8.308;2023-05-01T00:23:37;100183.44;;;10.19;100.00
15634;BME280;14654;48.898;8.308;2023-05-01T00:26:03;100177.38;;;10.22;100.00
15634;BME280;14654;48.898;8.308;2023-05-01T00:28:28;100178.22;;;10.24;100.00
15634;BME280;14654;48.898;8.308;2023-05-01T00:30:53;100175.66;;;10.21;100.00
15634;BME280;14654;48.898;8.308;2023-05-01T00:33:19;100179.09;;;10.23;100.00
15634;BME280;14654;48.898;8.308;2023-05-01T00:35:44;100177.34;;;10.25;100.00
15634;BME280;14654;48.898;8.308;2023-05-01T00:38:10;100176.41;;;10.31;100.00
15634;BME280;14654;48.898;8.308;2023-05-01T00:40:42;100174.69;;;10.34;100.00
15634;BME280;14654;48.898;8.308;2023-05-01T00:43:09;100168.63;;;10.37;100.00
15634;BME280;14654;48.898;8.308;2023-05-01T00:45:34;100161.69;;;10.41;100.00
15634;BME280;14654;48.898;8.308;2023-05-01T00:48:00;100161.69;;;10.44;100.00
15634;BME280;14654;48.898;8.308;2023-05-01T00:50:26;100158.16;;;10.49;100.00
15634;BME280;14654;48.898;8.308;2023-05-01T00:52:51;100161.56;;;10.53;100.00
15634;BME280;14654;48.898;8.308;2023-05-01T00:55:17;100156.38;;;10.58;100.00
15634;BME280;14654;48.898;8.308;2023-05-01T00:57:42;100146.81;;;10.63;100.00
15634;BME280;14654;48.898;8.308;2023-05-01T01:00:08;100140.75;;;10.65;100.00
15634;BME280;14654;48.898;8.308;2023-05-01T01:02:35;100148.53;;;10.65;100.00
15634;BME280;14654;48.898;8.308;2023-05-01T01:05:01;100144.19;;;10.66;100.00
15634;BME280;14654;48.898;8.308;2023-05-01T01:07:44;100135.50;;;10.68;100.00
15634;BME280;14654;48.898;8.308;2023-05-01T01:10:40;100134.66;;;10.68;100.00
15634;BME280;14654;48.898;8.308;2023-05-01T01:13:16;100130.34;;;10.70;100.00
15634;BME280;14654;48.898;8.308;2023-05-01T01:15:58;100134.66;;;10.71;100.00
15634;BME280;14654;48.898;8.308;2023-05-01T01:18:39;100126.00;;;10.72;100.00
15634;BME280;14654;48.898;8.308;2023-05-01T01:21:07;100122.53;;;10.72;100.00
15634;BME280;14654;48.898;8.308;2023-05-01T01:23:57;100123.41;;;10.72;100.00
15634;BME280;14654;48.898;8.308;2023-05-01T01:35:06;100114.84;;;10.67;100.00
15634;BME280;14654;48.898;8.308;2023-05-01T01:37:50;100109.66;;;10.67;100.00
15634;BME280;14654;48.898;8.308;2023-05-01T01:40:24;100111.38;;;10.68;100.00
15634;BME280;14654;48.898;8.308;2023-05-01T01:43:04;100107.91;;;10.67;100.00
15634;BME280;14654;48.898;8.308;2023-05-01T01:45:49;100109.66;;;10.67;100.00
15634;BME280;14654;48.898;8.308;2023-05-01T01:48:22;100111.38;;;10.68;100.00
15634;BME280;14654;48.898;8.308;2023-05-01T01:50:48;100114.78;;;10.73;100.00
15634;BME280;14654;48.898;8.308;2023-05-01T01:53:17;100110.38;;;10.78;100.00
15634;BME280;14654;48.898;8.308;2023-05-01T01:55:44;100112.06;;;10.82;100.00
15634;BME280;14654;48.898;8.308;2023-05-01T01:58:11;100109.47;;;10.82;100.00
15634;BME280;14654;48.898;8.308;2023-05-01T02:00:43;100105.13;;;10.83;100.00
15634;BME280;14654;48.898;8.308;2023-05-01T02:03:09;100109.41;;;10.87;100.00
15634;BME280;14654;48.898;8.308;2023-05-01T02:05:35;100111.06;;;10.93;100.00
15634;BME280;14654;48.898;8.308;2023-05-01T02:08:03;100104.09;;;10.98;100.00
15634;BME280;14654;48.898;8.308;2023-05-01T02:10:30;100096.28;;;11.00;100.00
15634;BME280;14654;48.898;8.308;2023-05-01T02:12:57;100095.44;;;10.97;100.00
15634;BME280;14654;48.898;8.308;2023-05-01T02:15:24;100093.78;;;10.96;100.00
15634;BME280;14654;48.898;8.308;2023-05-01T02:17:52;100092.06;;;10.94;100.00
15634;BME280;14654;48.898;8.308;2023-05-01T02:20:18;100093.00;;;10.88;100.00
15634;BME280;14654;48.898;8.308;2023-05-01T02:22:46;100087.09;;;10.80;100.00
15634;BME280;14654;48.898;8.308;2023-05-01T02:25:13;100087.13;;;10.75;100.00
15634;BME280;14654;48.898;8.308;2023-05-01T02:27:59;100090.66;;;10.71;100.00
15634;BME280;14654;48.898;8.308;2023-05-01T02:30:25;100089.00;;;10.65;100.00
15634;BME280;14654;48.898;8.308;2023-05-01T02:32:51;100085.59;;;10.60;100.00
15634;BME280;14654;48.898;8.308;2023-05-01T02:35:16;100082.19;;;10.55;100.00
15634;BME280;14654;48.898;8.308;2023-05-01T02:37:42;100081.41;;;10.50;100.00
15634;BME280;14654;48.898;8.308;2023-05-01T02:40:10;100072.03;;;10.41;100.00
15634;BME280;14654;48.898;8.308;2023-05-01T02:42:36;100077.25;;;10.33;100.00
15634;BME280;14654;48.898;8.308;2023-05-01T02:45:05;100077.34;;;10.26;100.00
15634;BME280;14654;48.898;8.308;2023-05-01T02:47:34;100069.63;;;10.21;100.00
15634;BME280;14654;48.898;8.308;2023-05-01T02:50:01;100079.16;;;10.14;100.00
15634;BME280;14654;48.898;8.308;2023-05-01T02:52:28;100073.19;;;10.07;100.00
15634;BME280;14654;48.898;8.308;2023-05-01T02:54:54;100075.00;;;10.02;100.00
15634;BME280;14654;48.898;8.308;2023-05-01T02:57:20;100069.91;;;9.95;100.00
15634;BME280;14654;48.898;8.308;2023-05-01T02:59:45;100072.53;;;9.91;100.00
15634;BME280;14654;48.898;8.308;2023-05-01T03:02:11;100068.25;;;9.87;100.00
15634;BME280;14654;48.898;8.308;2023-05-01T03:04:36;100064.81;;;9.85;100.00
15634;BME280;14654;48.898;8.308;2023-05-01T03:07:02;100061.41;;;9.82;100.00
15634;BME280;14654;48.898;8.308;2023-05-01T03:09:29;100064.84;;;9.81;100.00
15634;BME280;14654;48.898;8.308;2023-05-01T03:11:55;100061.44;;;9.79;100.00
15634;BME280;14654;48.898;8.308;2023-05-01T03:14:20;100066.59;;;9.79;100.00
15634;BME280;14654;48.898;8.308;2023-05-01T03:16:46;100065.78;;;9.75;100.00
15634;BME280;14654;48.898;8.308;2023-05-01T03:19:11;100061.47;;;9.77;100.00
15634;BME280;14654;48.898;8.308;2023-05-01T03:21:37;100064.03;;;9.77;100.00
15634;BME280;14654;48.898;8.308;2023-05-01T03:24:02;100061.44;;;9.79;100.00
15634;BME280;14654;48.898;8.308;2023-05-01T03:26:28;100060.56;;;9.80;100.00
15634;BME280;14654;48.898;8.308;2023-05-01T03:28:54;100059.69;;;9.81;100.00
15634;BME280;14654;48.898;8.308;2023-05-01T03:31:19;100057.94;;;9.83;100.00
15634;BME280;14654;48.898;8.308;2023-05-01T03:33:46;100051.91;;;9.84;100.00
15634;BME280;14654;48.898;8.308;2023-05-01T03:36:12;100051.03;;;9.85;100.00
15634;BME280;14654;48.898;8.308;2023-05-01T03:38:37;100049.31;;;9.85;100.00
15634;BME280;14654;48.898;8.308;2023-05-01T03:41:03;100044.16;;;9.84;100.00
15634;BME280;14654;48.898;8.308;2023-05-01T03:43:29;100055.38;;;9.83;100.00
15634;BME280;14654;48.898;8.308;2023-05-01T03:45:56;100050.22;;;9.81;100.00
15634;BME280;14654;48.898;8.308;2023-05-01T03:48:21;100039.91;;;9.78;100.00
15634;BME280;14654;48.898;8.308;2023-05-01T03:50:47;100040.81;;;9.74;100.00
15634;BME280;14654;48.898;8.308;2023-05-01T03:53:12;100043.47;;;9.68;100.00
15634;BME280;14654;48.898;8.308;2023-05-01T03:55:38;100036.59;;;9.62;100.00
15634;BME280;14654;48.898;8.308;2023-05-01T03:58:04;100040.09;;;9.58;100.00
15634;BME280;14654;48.898;8.308;2023-05-01T04:00:31;100043.56;;;9.54;100.00
15634;BME280;14654;48.898;8.308;2023-05-01T04:02:56;100032.41;;;9.50;100.00
15634;BME280;14654;48.898;8.308;2023-05-01T04:05:22;100036.72;;;9.50;100.00
15634;BME280;14654;48.898;8.308;2023-05-01T04:07:47;100032.41;;;9.49;100.00
15634;BME280;14654;48.898;8.308;2023-05-01T04:10:13;100034.16;;;9.46;100.00
15634;BME280;14654;48.898;8.308;2023-05-01T04:12:38;100035.88;;;9.48;100.00
15634;BME280;14654;48.898;8.308;2023-05-01T04:15:04;100035.00;;;9.49;100.00
15634;BME280;14654;48.898;8.308;2023-05-01T04:17:30;100034.97;;;9.52;100.00
15634;BME280;14654;48.898;8.308;2023-05-01T04:19:56;100037.53;;;9.55;100.00
15634;BME280;14654;48.898;8.308;2023-05-01T04:22:21;100037.50;;;9.58;100.00
15634;BME280;14654;48.898;8.308;2023-05-01T04:24:47;100039.19;;;9.62;100.00
15634;BME280;14654;48.898;8.308;2023-05-01T04:27:13;100035.72;;;9.68;100.00
15634;BME280;14654;48.898;8.308;2023-05-01T04:29:38;100034.78;;;9.73;100.00
15634;BME280;14654;48.898;8.308;2023-05-01T04:32:03;100030.41;;;9.79;100.00
15634;BME280;14654;48.898;8.308;2023-05-01T04:34:29;100028.69;;;9.81;100.00
15634;BME280;14654;48.898;8.308;2023-05-01T04:36:55;100029.53;;;9.83;100.00
15634;BME280;14654;48.898;8.308;2023-05-01T04:39:22;100041.53;;;9.85;100.00
15634;BME280;14654;48.898;8.308;2023-05-01T04:41:47;100046.72;;;9.87;100.00
15634;BME280;14654;48.898;8.308;2023-05-01T04:44:13;100044.94;;;9.90;100.00
15634;BME280;14654;48.898;8.308;2023-05-01T04:46:38;100049.22;;;9.93;100.00
15634;BME280;14654;48.898;8.308;2023-05-01T04:49:03;100050.94;;;9.96;100.00
15634;BME280;14654;48.898;8.308;2023-05-01T04:51:28;100046.56;;;10.01;100.00
15634;BME280;14654;48.898;8.308;2023-05-01T04:53:54;100043.03;;;10.06;100.00
15634;BME280;14654;48.898;8.308;2023-05-01T04:56:20;100052.47;;;10.14;100.00
15634;BME280;14654;48.898;8.308;2023-05-01T04:58:45;100049.81;;;10.20;100.00
15634;BME280;14654;48.898;8.308;2023-05-01T05:01:11;100054.03;;;10.27;100.00
15634;BME280;14654;48.898;8.308;2023-05-01T05:03:36;100056.53;;;10.35;100.00
15634;BME280;14654;48.898;8.308;2023-05-01T05:06:01;100058.22;;;10.42;100.00
15634;BME280;14654;48.898;8.308;2023-05-01T05:08:28;100056.41;;;10.47;100.00
15634;BME280;14654;48.898;8.308;2023-05-01T05:11:00;100058.91;;;10.57;100.00
15634;BME280;14654;48.898;8.308;2023-05-01T05:13:26;100061.38;;;10.66;100.00
15634;BME280;14654;48.898;8.308;2023-05-01T05:15:52;100054.34;;;10.76;100.00
15634;BME280;14654;48.898;8.308;2023-05-01T05:18:17;100055.03;;;10.89;100.00
15634;BME280;14654;48.898;8.308;2023-05-01T05:20:43;100059.09;;;11.05;100.00
15634;BME280;14654;48.898;8.308;2023-05-01T05:23:08;100068.34;;;11.22;100.00
15634;BME280;14654;48.898;8.308;2023-05-01T05:25:34;100061.16;;;11.41;100.00
15634;BME280;14654;48.898;8.308;2023-05-01T05:27:59;100065.13;;;11.62;100.00
15634;BME280;14654;48.898;8.308;2023-05-01T05:30:25;100063.91;;;11.82;100.00
15634;BME280;14654;48.898;8.308;2023-05-01T05:32:51;100054.13;;;11.98;100.00
15634;BME280;14654;48.898;8.308;2023-05-01T05:35:16;100060.78;;;12.13;100.00
15634;BME280;14654;48.898;8.308;2023-05-01T05:37:42;100057.91;;;12.30;100.00
15634;BME280;14654;48.898;8.308;2023-05-01T05:40:08;100056.66;;;12.48;100.00
15634;BME280;14654;48.898;8.308;2023-05-01T05:42:33;100064.13;;;12.63;100.00
15634;BME280;14654;48.898;8.308;2023-05-01T05:44:59;100058.72;;;12.73;100.00
15634;BME280;14654;48.898;8.308;2023-05-01T05:47:24;100063.84;;;12.76;100.00
15634;BME280;14654;48.898;8.308;2023-05-01T05:49:50;100063.91;;;12.74;100.00
15634;BME280;14654;48.898;8.308;2023-05-01T05:52:15;100068.28;;;12.71;100.00
15634;BME280;14654;48.898;8.308;2023-05-01T05:54:41;100062.25;;;12.70;100.00
15634;BME280;14654;48.898;8.308;2023-05-01T05:57:07;100072.63;;;12.70;100.00
15634;BME280;14654;48.898;8.308;2023-05-01T05:59:32;100070.88;;;12.71;100.00
15634;BME280;14654;48.898;8.308;2023-05-01T06:01:57;100070.81;;;12.75;100.00
15634;BME280;14654;48.898;8.308;2023-05-01T06:04:23;100082.09;;;12.74;100.00
15634;BME280;14654;48.898;8.308;2023-05-01T06:06:48;100087.22;;;12.77;100.00
15634;BME280;14654;48.898;8.308;2023-05-01T06:09:14;100087.00;;;12.87;100.00
15634;BME280;14654;48.898;8.308;2023-05-01T06:11:41;100083.34;;;12.95;100.00
15634;BME280;14654;48.898;8.308;2023-05-01T06:14:06;100079.59;;;13.09;100.00
15634;BME280;14654;48.898;8.308;2023-05-01T06:16:32;100086.28;;;13.19;100.00
15634;BME280;14654;48.898;8.308;2023-05-01T06:18:58;100079.19;;;13.26;100.00
15634;BME280;14654;48.898;8.308;2023-05-01T06:21:23;100086.09;;;13.27;100.00
15634;BME280;14654;48.898;8.308;2023-05-01T06:23:49;100074.97;;;13.22;100.00
15634;BME280;14654;48.898;8.308;2023-05-01T06:26:14;100078.53;;;13.16;100.00
15634;BME280;14654;48.898;8.308;2023-05-01T06:28:39;100075.22;;;13.09;100.00
15634;BME280;14654;48.898;8.308;2023-05-01T06:31:05;100074.50;;;13.04;100.00
15634;BME280;14654;48.898;8.308;2023-05-01T06:33:30;100075.41;;;13.02;100.00
15634;BME280;14654;48.898;8.308;2023-05-01T06:35:55;100085.72;;;13.06;100.00
15634;BME280;14654;48.898;8.308;2023-05-01T06:38:24;100086.38;;;13.15;100.00
15634;BME280;14654;48.898;8.308;2023-05-01T06:40:49;100090.47;;;13.26;100.00
15634;BME280;14654;48.898;8.308;2023-05-01T06:43:14;100090.28;;;13.33;100.00
15634;BME280;14654;48.898;8.308;2023-05-01T06:45:40;100095.41;;;13.37;100.00
15634;BME280;14654;48.898;8.308;2023-05-01T06:48:06;100097.97;;;13.39;100.00
15634;BME280;14654;48.898;8.308;2023-05-01T06:50:31;100100.53;;;13.40;100.00
15634;BME280;14654;48.898;8.308;2023-05-01T06:52:57;100106.53;;;13.44;100.00
15634;BME280;14654;48.898;8.308;2023-05-01T06:55:24;100108.22;;;13.47;100.00
15634;BME280;14654;48.898;8.308;2023-05-01T06:57:49;100112.47;;;13.49;100.00
15634;BME280;14654;48.898;8.308;2023-05-01T07:00:15;100114.16;;;13.52;100.00
15634;BME280;14654;48.898;8.308;2023-05-01T07:02:41;100107.31;;;13.48;100.00
15634;BME280;14654;48.898;8.308;2023-05-01T07:05:07;100116.06;;;13.45;100.00
15634;BME280;14654;48.898;8.308;2023-05-01T07:07:32;100106.63;;;13.41;100.00
15634;BME280;14654;48.898;8.308;2023-05-01T07:09:57;100112.63;;;13.43;100.00
15634;BME280;14654;48.898;8.308;2023-05-01T07:12:22;100116.84;;;13.47;100.00
15634;BME280;14654;48.898;8.308;2023-05-01T07:14:48;100113.34;;;13.48;100.00
15634;BME280;14654;48.898;8.308;2023-05-01T07:17:14;100113.28;;;13.51;100.00
15634;BME280;14654;48.898;8.308;2023-05-01T07:19:39;100117.47;;;13.57;100.00
15634;BME280;14654;48.898;8.308;2023-05-01T07:22:05;100113.09;;;13.61;100.00
15634;BME280;14654;48.898;8.308;2023-05-01T07:24:30;100122.50;;;13.65;100.00
15634;BME280;14654;48.898;8.308;2023-05-01T07:26:55;100114.56;;;13.71;100.00
15634;BME280;14654;48.898;8.308;2023-05-01T07:29:21;100113.44;;;13.81;99.85
15634;BME280;14654;48.898;8.308;2023-05-01T07:31:46;100117.53;;;13.90;99.31
15634;BME280;14654;48.898;8.308;2023-05-01T07:34:12;100109.50;;;13.99;98.94
15634;BME280;14654;48.898;8.308;2023-05-01T07:36:38;100108.31;;;14.11;98.86
15634;BME280;14654;48.898;8.308;2023-05-01T07:39:03;100109.63;;;14.28;98.70
15634;BME280;14654;48.898;8.308;2023-05-01T07:41:29;100099.66;;;14.44;97.56
15634;BME280;14654;48.898;8.308;2023-05-01T07:43:57;100101.03;;;14.56;96.44
15634;BME280;14654;48.898;8.308;2023-05-01T07:46:23;100098.84;;;14.73;96.18
15634;BME280;14654;48.898;8.308;2023-05-01T07:48:48;100106.84;;;14.97;95.41
15634;BME280;14654;48.898;8.308;2023-05-01T07:51:14;100101.69;;;15.22;94.83
15634;BME280;14654;48.898;8.308;2023-05-01T07:53:39;100106.84;;;15.52;93.51
15634;BME280;14654;48.898;8.308;2023-05-01T07:56:09;100100.84;;;15.77;92.68
15634;BME280;14654;48.898;8.308;2023-05-01T07:58:35;100096.50;;;16.03;91.93
15634;BME280;14654;48.898;8.308;2023-05-01T08:01:01;100106.06;;;16.28;91.01
15634;BME280;14654;48.898;8.308;2023-05-01T08:03:28;100103.53;;;16.50;90.50
15634;BME280;14654;48.898;8.308;2023-05-01T08:05:54;100107.25;;;16.68;89.92
15634;BME280;14654;48.898;8.308;2023-05-01T08:08:19;100104.72;;;16.89;89.09
15634;BME280;14654;48.898;8.308;2023-05-01T08:10:46;100110.25;;;17.05;87.51
15634;BME280;14654;48.898;8.308;2023-05-01T08:13:11;100116.94;;;17.12;86.86
15634;BME280;14654;48.898;8.308;2023-05-01T08:15:37;100115.19;;;17.13;86.07
15634;BME280;14654;48.898;8.308;2023-05-01T08:18:03;100109.78;;;17.17;85.81
15634;BME280;14654;48.898;8.308;2023-05-01T08:20:29;100116.28;;;17.29;85.60
15634;BME280;14654;48.898;8.308;2023-05-01T08:22:54;100111.06;;;17.29;85.63
15634;BME280;14654;48.898;8.308;2023-05-01T08:25:20;100114.72;;;17.25;85.61
15634;BME280;14654;48.898;8.308;2023-05-01T08:27:46;100113.91;;;17.23;86.14
15634;BME280;14654;48.898;8.308;2023-05-01T08:30:12;100116.44;;;17.25;86.01
15634;BME280;14654;48.898;8.308;2023-05-01T08:32:37;100111.84;;;17.31;85.65
15634;BME280;14654;48.898;8.308;2023-05-01T08:35:03;100108.66;;;17.45;85.54
15634;BME280;14654;48.898;8.308;2023-05-01T08:37:28;100105.13;;;17.68;84.89
15634;BME280;14654;48.898;8.308;2023-05-01T08:39:54;100111.91;;;17.93;83.45
15634;BME280;14654;48.898;8.308;2023-05-01T08:42:20;100102.72;;;18.05;82.36
15634;BME280;14654;48.898;8.308;2023-05-01T08:44:46;100103.59;;;18.06;81.95
15634;BME280;14654;48.898;8.308;2023-05-01T08:47:16;100106.84;;;18.11;82.33
15634;BME280;14654;48.898;8.308;2023-05-01T08:49:43;100102.94;;;18.21;82.39
15634;BME280;14654;48.898;8.308;2023-05-01T08:52:13;100093.84;;;18.49;82.07
15634;BME280;14654;48.898;8.308;2023-05-01T08:54:41;100090.38;;;18.87;81.27
15634;BME280;14654;48.898;8.308;2023-05-01T08:57:10;100081.22;;;19.15;80.63
15634;BME280;14654;48.898;8.308;2023-05-01T08:59:37;100089.13;;;19.32;80.26
15634;BME280;14654;48.898;8.308;2023-05-01T09:02:05;100088.38;;;19.48;79.79
15634;BME280;14654;48.898;8.308;2023-05-01T09:04:32;100093.41;;;19.53;79.01
15634;BME280;14654;48.898;8.308;2023-05-01T09:06:58;100098.50;;;19.56;78.76
15634;BME280;14654;48.898;8.308;2023-05-01T09:09:26;100093.66;;;19.65;79.29
15634;BME280;14654;48.898;8.308;2023-05-01T09:12:00;100096.03;;;19.70;78.70
15634;BME280;14654;48.898;8.308;2023-05-01T09:14:27;100096.28;;;19.65;78.81
15634;BME280;14654;48.898;8.308;2023-05-01T09:16:52;100097.97;;;19.49;78.94
15634;BME280;14654;48.898;8.308;2023-05-01T09:19:18;100095.69;;;19.24;79.49
15634;BME280;14654;48.898;8.308;2023-05-01T09:21:44;100092.94;;;19.08;79.97
15634;BME280;14654;48.898;8.308;2023-05-01T09:24:09;100100.22;;;19.01;80.09
15634;BME280;14654;48.898;8.308;2023-05-01T09:26:38;100100.22;;;19.01;80.02
15634;BME280;14654;48.898;8.308;2023-05-01T09:29:06;100100.19;;;19.02;80.40
15634;BME280;14654;48.898;8.308;2023-05-01T09:31:31;100093.94;;;19.05;80.23
15634;BME280;14654;48.898;8.308;2023-05-01T09:33:58;100096.41;;;19.08;80.49
15634;BME280;14654;48.898;8.308;2023-05-01T09:36:26;100101.66;;;19.08;80.70
15634;BME280;14654;48.898;8.308;2023-05-01T09:38:52;100097.97;;;19.12;80.63
15634;BME280;14654;48.898;8.308;2023-05-01T09:41:17;100098.34;;;19.22;80.16
15634;BME280;14654;48.898;8.308;2023-05-01T09:43:49;100105.81;;;19.31;80.15
15634;BME280;14654;48.898;8.308;2023-05-01T09:46:15;100103.09;;;19.33;79.93
15634;BME280;14654;48.898;8.308;2023-05-01T09:48:51;100106.50;;;19.35;79.96
15634;BME280;14654;48.898;8.308;2023-05-01T09:53:49;100091.47;;;19.74;79.16
15634;BME280;14654;48.898;8.308;2023-05-01T09:56:15;100087.06;;;20.09;78.71
15634;BME280;14654;48.898;8.308;2023-05-01T09:58:41;100086.53;;;20.36;77.22
15634;BME280;14654;48.898;8.308;2023-05-01T10:01:06;100083.88;;;20.54;76.67
15634;BME280;14654;48.898;8.308;2023-05-01T10:03:36;100094.06;;;20.60;76.64
15634;BME280;14654;48.898;8.308;2023-05-01T10:06:01;100086.44;;;20.55;76.46
15634;BME280;14654;48.898;8.308;2023-05-01T10:08:48;100094.38;;;20.54;76.06
15634;BME280;14654;48.898;8.308;2023-05-01T10:11:13;100086.50;;;20.54;75.44
15634;BME280;14654;48.898;8.308;2023-05-01T10:13:39;100096.94;;;20.55;75.45
15634;BME280;14654;48.898;8.308;2023-05-01T10:16:05;100093.97;;;20.62;75.23
15634;BME280;14654;48.898;8.308;2023-05-01T10:18:35;100093.41;;;20.89;75.20
15634;BME280;14654;48.898;8.308;2023-05-01T10:21:03;100083.66;;;21.07;74.57
15634;BME280;14654;48.898;8.308;2023-05-01T10:23:28;100083.06;;;21.17;74.21
15634;BME280;14654;48.898;8.308;2023-05-01T10:25:54;100085.00;;;21.30;74.27
15634;BME280;14654;48.898;8.308;2023-05-01T10:28:21;100076.41;;;21.42;73.64
15634;BME280;14654;48.898;8.308;2023-05-01T10:30:49;100081.03;;;21.53;73.68
15634;BME280;14654;48.898;8.308;2023-05-01T10:33:16;100075.50;;;21.58;73.43
15634;BME280;14654;48.898;8.308;2023-05-01T10:35:47;100077.47;;;21.54;73.39
15634;BME280;14654;48.898;8.308;2023-05-01T10:38:25;100078.09;;;21.43;73.36
15634;BME280;14654;48.898;8.308;2023-05-01T10:40:53;100072.28;;;21.53;73.69
15634;BME280;14654;48.898;8.308;2023-05-01T10:43:23;100075.91;;;21.66;73.50
15634;BME280;14654;48.898;8.308;2023-05-01T10:53:40;100073.56;;;22.21;72.71
15634;BME280;14654;48.898;8.308;2023-05-01T11:01:31;100064.72;;;22.07;73.11
15634;BME280;14654;48.898;8.308;2023-05-01T11:04:05;100063.94;;;22.05;73.22
15634;BME280;14654;48.898;8.308;2023-05-01T11:06:35;100057.00;;;22.19;73.32
15634;BME280;14654;48.898;8.308;2023-05-01T11:12:03;100056.31;;;22.73;72.46
15634;BME280;14654;48.898;8.308;2023-05-01T11:22:57;100044.22;;;22.83;71.55
15634;BME280;14654;48.898;8.308;2023-05-01T11:25:25;100037.38;;;22.94;71.01
15634;BME280;14654;48.898;8.308;2023-05-01T11:27:58;100043.22;;;22.99;71.16
15634;BME280;14654;48.898;8.308;2023-05-01T11:30:24;100039.94;;;22.95;71.31
15634;BME280;14654;48.898;8.308;2023-05-01T11:32:50;100036.44;;;22.95;71.02
15634;BME280;14654;48.898;8.308;2023-05-01T11:35:24;100031.66;;;23.14;70.63
15634;BME280;14654;48.898;8.308;2023-05-01T11:37:53;100036.69;;;23.45;70.23
15634;BME280;14654;48.898;8.308;2023-05-01T11:40:28;100027.97;;;23.70;69.93
15634;BME280;14654;48.898;8.308;2023-05-01T11:43:08;100028.41;;;23.77;69.54
15634;BME280;14654;48.898;8.308;2023-05-01T11:45:34;100029.78;;;23.70;69.65
15634;BME280;14654;48.898;8.308;2023-05-01T11:48:00;100024.81;;;23.65;69.79
15634;BME280;14654;48.898;8.308;2023-05-01T11:50:36;100017.59;;;23.67;70.17
15634;BME280;14654;48.898;8.308;2023-05-01T11:53:12;100023.94;;;23.65;70.25
15634;BME280;14654;48.898;8.308;2023-05-01T11:55:40;100020.47;;;23.51;70.41
15634;BME280;14654;48.898;8.308;2023-05-01T11:58:05;100015.25;;;23.37;70.75
15634;BME280;14654;48.898;8.308;2023-05-01T12:00:39;100013.44;;;23.24;71.09
15634;BME280;14654;48.898;8.308;2023-05-01T12:03:08;100007.06;;;23.14;71.20
15634;BME280;14654;48.898;8.308;2023-05-01T12:05:39;100013.28;;;23.13;71.06
15634;BME280;14654;48.898;8.308;2023-05-01T12:08:14;100007.47;;;23.08;70.74
15634;BME280;14654;48.898;8.308;2023-05-01T12:10:41;100006.41;;;23.10;70.94
15634;BME280;14654;48.898;8.308;2023-05-01T12:13:09;100012.03;;;23.19;70.34
15634;BME280;14654;48.898;8.308;2023-05-01T12:15:37;100006.28;;;23.39;70.15
15634;BME280;14654;48.898;8.308;2023-05-01T12:18:04;100005.13;;;23.69;69.49
15634;BME280;14654;48.898;8.308;2023-05-01T12:20:40;100001.25;;;24.01;68.84
15634;BME280;14654;48.898;8.308;2023-05-01T12:23:09;100010.66;;;24.18;68.42
15634;BME280;14654;48.898;8.308;2023-05-01T12:25:38;100009.34;;;24.37;67.23
15634;BME280;14654;48.898;8.308;2023-05-01T12:28:18;100002.16;;;24.39;65.80
15634;BME280;14654;48.898;8.308;2023-05-01T12:30:47;100006.44;;;24.02;65.74
15634;BME280;14654;48.898;8.308;2023-05-01T12:33:19;100005.66;;;23.62;66.33
15634;BME280;14654;48.898;8.308;2023-05-01T12:35:47;100009.56;;;23.30;66.61
15634;BME280;14654;48.898;8.308;2023-05-01T12:38:18;100006.72;;;22.78;67.48
15634;BME280;14654;48.898;8.308;2023-05-01T12:40:58;100004.81;;;22.24;68.92
15634;BME280;14654;48.898;8.308;2023-05-01T12:43:34;100009.63;;;21.88;69.11
15634;BME280;14654;48.898;8.308;2023-05-01T12:46:01;100010.25;;;21.63;69.20
15634;BME280;14654;48.898;8.308;2023-05-01T12:48:28;100007.47;;;21.36;70.16
15634;BME280;14654;48.898;8.308;2023-05-01T12:50:54;100014.72;;;21.16;69.89
15634;BME280;14654;48.898;8.308;2023-05-01T12:53:22;100014.22;;;21.09;69.67
15634;BME280;14654;48.898;8.308;2023-05-01T12:55:50;100016.03;;;21.09;69.46
15634;BME280;14654;48.898;8.308;2023-05-01T12:58:16;100015.59;;;21.16;69.20
15634;BME280;14654;48.898;8.308;2023-05-01T13:00:55;100025.75;;;21.23;69.34
15634;BME280;14654;48.898;8.308;2023-05-01T13:03:23;100012.09;;;21.46;69.42
15634;BME280;14654;48.898;8.308;2023-05-01T13:05:50;100013.66;;;21.65;69.14
15634;BME280;14654;48.898;8.308;2023-05-01T13:08:24;100010.09;;;21.95;68.99
15634;BME280;14654;48.898;8.308;2023-05-01T13:10:52;100014.16;;;22.30;68.53
15634;BME280;14654;48.898;8.308;2023-05-01T13:13:28;100010.59;;;22.45;68.30
15634;BME280;14654;48.898;8.308;2023-05-01T13:16:02;100001.94;;;22.43;68.05
15634;BME280;14654;48.898;8.308;2023-05-01T13:18:29;99988.63;;;22.30;68.80
15634;BME280;14654;48.898;8.308;2023-05-01T13:20:55;99990.22;;;22.18;69.27
15634;BME280;14654;48.898;8.308;2023-05-01T13:23:20;99999.50;;;21.82;68.71